sensor_id;sensor_type;location;lat;lon;timestamp;temperature;humidity
25871;DHT22;13689;48.590;7.752;2023-02-08T00:01:52;1.10;70.10
25871;DHT22;13689;48.590;7.752;2023-02-08T00:04:18;1.10;70.00
25871;DHT22;13689;48.590;7.752;2023-02-08T00:06:43;1.10;70.00
25871;DHT22;13689;48.590;7.752;2023-02-08T00:09:09;1.10;70.00
25871;DHT22;13689;48.590;7.752;2023-02-08T00:11:35;1.00;70.10
25871;DHT22;13689;48.590;7.752;2023-02-08T00:14:00;1.10;70.10
25871;DHT22;13689;48.590;7.752;2023-02-08T00:16:26;1.10;69.90
25871;DHT22;13689;48.590;7.752;2023-02-08T00:18:52;1.20;70.00
25871;DHT22;13689;48.590;7.752;2023-02-08T00:21:18;1.20;69.90
25871;DHT22;13689;48.590;7.752;2023-02-08T00:23:44;1.20;69.80
25871;DHT22;13689;48.590;7.752;2023-02-08T00:26:10;1.20;69.80
25871;DHT22;13689;48.590;7.752;2023-02-08T00:28:36;1.20;69.70
25871;DHT22;13689;48.590;7.752;2023-02-08T00:31:02;1.20;69.70
25871;DHT22;13689;48.590;7.752;2023-02-08T00:33:28;1.10;69.70
25871;DHT22;13689;48.590;7.752;2023-02-08T00:36:05;1.10;70.00
25871;DHT22;13689;48.590;7.752;2023-02-08T00:38:31;1.10;70.00
25871;DHT22;13689;48.590;7.752;2023-02-08T00:40:57;1.10;70.20
25871;DHT22;13689;48.590;7.752;2023-02-08T00:43:22;1.10;70.20
25871;DHT22;13689;48.590;7.752;2023-02-08T00:45:53;1.10;70.00
25871;DHT22;13689;48.590;7.752;2023-02-08T00:48:19;1.10;70.80
25871;DHT22;13689;48.590;7.752;2023-02-08T00:50:58;1.00;70.00
25871;DHT22;13689;48.590;7.752;2023-02-08T00:53:24;1.00;70.30
25871;DHT22;13689;48.590;7.752;2023-02-08T00:55:53;0.90;70.40
25871;DHT22;13689;48.590;7.752;2023-02-08T00:58:20;0.90;70.60
25871;DHT22;13689;48.590;7.752;2023-02-08T01:00:45;0.80;70.70
25871;DHT22;13689;48.590;7.752;2023-02-08T01:03:11;0.90;71.00
25871;DHT22;13689;48.590;7.752;2023-02-08T01:05:37;0.90;71.10
25871;DHT22;13689;48.590;7.752;2023-02-08T01:08:03;0.90;70.90
25871;DHT22;13689;48.590;7.752;2023-02-08T01:10:29;0.90;70.80
25871;DHT22;13689;48.590;7.752;2023-02-08T01:12:56;0.80;70.90
25871;DHT22;13689;48.590;7.752;2023-02-08T01:15:22;0.90;70.90
25871;DHT22;13689;48.590;7.752;2023-02-08T01:17:51;0.90;71.00
25871;DHT22;13689;48.590;7.752;2023-02-08T01:20:17;0.90;71.00
25871;DHT22;13689;48.590;7.752;2023-02-08T01:22:43;1.00;70.80
25871;DHT22;13689;48.590;7.752;2023-02-08T01:25:08;1.00;70.70
25871;DHT22;13689;48.590;7.752;2023-02-08T01:27:35;1.00;70.60
25871;DHT22;13689;48.590;7.752;2023-02-08T01:30:01;1.00;70.50
25871;DHT22;13689;48.590;7.752;2023-02-08T01:32:26;1.00;70.60
25871;DHT22;13689;48.590;7.752;2023-02-08T01:34:52;1.00;70.70
25871;DHT22;13689;48.590;7.752;2023-02-08T01:37:18;1.00;70.70
25871;DHT22;13689;48.590;7.752;2023-02-08T01:39:43;0.90;70.60
25871;DHT22;13689;48.590;7.752;2023-02-08T01:42:13;0.90;70.80
25871;DHT22;13689;48.590;7.752;2023-02-08T01:48:09;0.90;71.00
25871;DHT22;13689;48.590;7.752;2023-02-08T01:51:04;0.90;71.00
25871;DHT22;13689;48.590;7.752;2023-02-08T01:53:33;0.90;70.80
25871;DHT22;13689;48.590;7.752;2023-02-08T01:56:03;0.90;70.80
25871;DHT22;13689;48.590;7.752;2023-02-08T01:58:31;0.90;70.80
25871;DHT22;13689;48.590;7.752;2023-02-08T02:01:00;0.80;71.10
25871;DHT22;13689;48.590;7.752;2023-02-08T02:03:27;0.90;71.10
25871;DHT22;13689;48.590;7.752;2023-02-08T02:06:16;0.90;71.00
25871;DHT22;13689;48.590;7.752;2023-02-08T02:08:50;0.90;71.00
25871;DHT22;13689;48.590;7.752;2023-02-08T02:11:19;0.90;70.90
25871;DHT22;13689;48.590;7.752;2023-02-08T02:13:45;0.90;70.90
25871;DHT22;13689;48.590;7.752;2023-02-08T02:16:12;0.80;70.80
25871;DHT22;13689;48.590;7.752;2023-02-08T02:18:37;0.80;70.90
25871;DHT22;13689;48.590;7.752;2023-02-08T02:34:49;0.60;71.40
25871;DHT22;13689;48.590;7.752;2023-02-08T02:49:06;0.30;72.10
25871;DHT22;13689;48.590;7.752;2023-02-08T02:51:47;0.30;72.40
25871;DHT22;13689;48.590;7.752;2023-02-08T02:54:27;0.30;72.60
25871;DHT22;13689;48.590;7.752;2023-02-08T02:57:00;0.30;72.60
25871;DHT22;13689;48.590;7.752;2023-02-08T02:59:27;0.30;72.70
25871;DHT22;13689;48.590;7.752;2023-02-08T03:01:54;0.20;72.70
25871;DHT22;13689;48.590;7.752;2023-02-08T03:10:18;0.20;72.80
25871;DHT22;13689;48.590;7.752;2023-02-08T03:13:17;0.20;72.50
25871;DHT22;13689;48.590;7.752;2023-02-08T03:16:05;0.20;72.70
25871;DHT22;13689;48.590;7.752;2023-02-08T03:19:10;0.20;72.50
25871;DHT22;13689;48.590;7.752;2023-02-08T03:21:53;0.10;72.80
25871;DHT22;13689;48.590;7.752;2023-02-08T03:24:27;0.10;73.70
25871;DHT22;13689;48.590;7.752;2023-02-08T03:27:05;0.00;73.00
25871;DHT22;13689;48.590;7.752;2023-02-08T03:29:46;-0.10;73.10
25871;DHT22;13689;48.590;7.752;2023-02-08T03:32:25;-0.10;73.40
25871;DHT22;13689;48.590;7.752;2023-02-08T03:34:59;-0.10;73.50
25871;DHT22;13689;48.590;7.752;2023-02-08T03:37:36;-0.10;73.80
25871;DHT22;13689;48.590;7.752;2023-02-08T03:40:22;-0.10;73.70
25871;DHT22;13689;48.590;7.752;2023-02-08T03:42:51;-0.10;73.40
25871;DHT22;13689;48.590;7.752;2023-02-08T03:45:25;-0.10;73.60
25871;DHT22;13689;48.590;7.752;2023-02-08T03:47:53;-0.10;73.50
25871;DHT22;13689;48.590;7.752;2023-02-08T03:50:21;-0.10;73.40
25871;DHT22;13689;48.590;7.752;2023-02-08T03:52:49;-0.10;73.20
25871;DHT22;13689;48.590;7.752;2023-02-08T03:55:20;-0.20;73.20
25871;DHT22;13689;48.590;7.752;2023-02-08T04:00:18;-0.20;74.10
25871;DHT22;13689;48.590;7.752;2023-02-08T04:05:17;-0.20;73.00
25871;DHT22;13689;48.590;7.752;2023-02-08T04:07:43;-0.20;73.10
25871;DHT22;13689;48.590;7.752;2023-02-08T04:10:09;-0.20;73.10
25871;DHT22;13689;48.590;7.752;2023-02-08T04:12:35;-0.20;73.00
25871;DHT22;13689;48.590;7.752;2023-02-08T04:15:00;-0.20;73.00
25871;DHT22;13689;48.590;7.752;2023-02-08T04:17:26;-0.20;72.90
25871;DHT22;13689;48.590;7.752;2023-02-08T04:19:52;-0.30;72.80
25871;DHT22;13689;48.590;7.752;2023-02-08T04:22:17;-0.30;72.70
25871;DHT22;13689;48.590;7.752;2023-02-08T04:24:43;-0.30;72.80
25871;DHT22;13689;48.590;7.752;2023-02-08T04:27:08;-0.30;72.70
25871;DHT22;13689;48.590;7.752;2023-02-08T04:29:34;-0.30;72.70
25871;DHT22;13689;48.590;7.752;2023-02-08T04:31:59;-0.30;72.50
25871;DHT22;13689;48.590;7.752;2023-02-08T04:34:25;-0.30;72.50
25871;DHT22;13689;48.590;7.752;2023-02-08T04:36:51;-0.30;72.20
25871;DHT22;13689;48.590;7.752;2023-02-08T04:39:17;-0.30;72.20
25871;DHT22;13689;48.590;7.752;2023-02-08T04:41:43;-0.20;72.30
25871;DHT22;13689;48.590;7.752;2023-02-08T04:44:08;-0.20;72.10
25871;DHT22;13689;48.590;7.752;2023-02-08T04:46:34;-0.20;71.90
25871;DHT22;13689;48.590;7.752;2023-02-08T04:48:59;-0.20;72.00
25871;DHT22;13689;48.590;7.752;2023-02-08T04:51:25;-0.20;71.80
25871;DHT22;13689;48.590;7.752;2023-02-08T04:53:51;-0.30;71.40
25871;DHT22;13689;48.590;7.752;2023-02-08T04:56:16;-0.30;71.30
25871;DHT22;13689;48.590;7.752;2023-02-08T04:58:42;-0.40;71.10
25871;DHT22;13689;48.590;7.752;2023-02-08T05:01:08;-0.40;71.20
25871;DHT22;13689;48.590;7.752;2023-02-08T05:03:35;-0.40;71.50
25871;DHT22;13689;48.590;7.752;2023-02-08T05:06:01;-0.40;71.40
25871;DHT22;13689;48.590;7.752;2023-02-08T05:08:27;-0.40;71.50
25871;DHT22;13689;48.590;7.752;2023-02-08T05:10:55;-0.40;71.50
25871;DHT22;13689;48.590;7.752;2023-02-08T05:13:21;-0.40;71.30
25871;DHT22;13689;48.590;7.752;2023-02-08T05:15:47;-0.40;71.50
25871;DHT22;13689;48.590;7.752;2023-02-08T05:18:12;-0.40;71.50
25871;DHT22;13689;48.590;7.752;2023-02-08T05:20:38;-0.40;71.40
25871;DHT22;13689;48.590;7.752;2023-02-08T05:23:03;-0.40;71.30
25871;DHT22;13689;48.590;7.752;2023-02-08T05:25:30;-0.40;71.30
25871;DHT22;13689;48.590;7.752;2023-02-08T05:27:56;-0.40;71.30
25871;DHT22;13689;48.590;7.752;2023-02-08T05:30:21;-0.40;71.30
25871;DHT22;13689;48.590;7.752;2023-02-08T05:32:47;-0.40;71.30
25871;DHT22;13689;48.590;7.752;2023-02-08T05:35:13;-0.40;71.30
25871;DHT22;13689;48.590;7.752;2023-02-08T05:37:38;-0.40;71.40
25871;DHT22;13689;48.590;7.752;2023-02-08T05:40:04;-0.40;71.10
25871;DHT22;13689;48.590;7.752;2023-02-08T05:42:30;-0.40;71.10
25871;DHT22;13689;48.590;7.752;2023-02-08T05:44:55;-0.50;71.10
25871;DHT22;13689;48.590;7.752;2023-02-08T05:47:21;-0.50;71.30
25871;DHT22;13689;48.590;7.752;2023-02-08T05:49:47;-0.50;71.50
25871;DHT22;13689;48.590;7.752;2023-02-08T05:52:12;-0.50;71.60
25871;DHT22;13689;48.590;7.752;2023-02-08T05:54:38;-0.50;71.70
25871;DHT22;13689;48.590;7.752;2023-02-08T05:57:03;-0.50;71.70
25871;DHT22;13689;48.590;7.752;2023-02-08T05:59:29;-0.50;71.80
25871;DHT22;13689;48.590;7.752;2023-02-08T06:01:54;-0.50;71.60
25871;DHT22;13689;48.590;7.752;2023-02-08T06:04:20;-0.50;71.80
25871;DHT22;13689;48.590;7.752;2023-02-08T06:06:46;-0.50;72.00
25871;DHT22;13689;48.590;7.752;2023-02-08T06:09:11;-0.60;72.00
25871;DHT22;13689;48.590;7.752;2023-02-08T06:11:37;-0.60;72.10
25871;DHT22;13689;48.590;7.752;2023-02-08T06:14:03;-0.60;72.20
25871;DHT22;13689;48.590;7.752;2023-02-08T06:16:28;-0.60;72.30
25871;DHT22;13689;48.590;7.752;2023-02-08T06:18:54;-0.60;72.50
25871;DHT22;13689;48.590;7.752;2023-02-08T06:21:20;-0.60;72.60
25871;DHT22;13689;48.590;7.752;2023-02-08T06:23:45;-0.60;72.70
25871;DHT22;13689;48.590;7.752;2023-02-08T06:26:11;-0.60;73.60
25871;DHT22;13689;48.590;7.752;2023-02-08T06:28:36;-0.60;72.80
25871;DHT22;13689;48.590;7.752;2023-02-08T06:31:02;-0.70;72.70
25871;DHT22;13689;48.590;7.752;2023-02-08T06:33:28;-0.70;72.90
25871;DHT22;13689;48.590;7.752;2023-02-08T06:35:53;-0.60;73.00
25871;DHT22;13689;48.590;7.752;2023-02-08T06:38:19;-0.60;73.00
25871;DHT22;13689;48.590;7.752;2023-02-08T06:40:46;-0.60;72.90
25871;DHT22;13689;48.590;7.752;2023-02-08T06:43:12;-0.60;73.00
25871;DHT22;13689;48.590;7.752;2023-02-08T06:45:38;-0.60;73.10
25871;DHT22;13689;48.590;7.752;2023-02-08T06:48:04;-0.60;73.30
25871;DHT22;13689;48.590;7.752;2023-02-08T06:50:30;-0.60;73.40
25871;DHT22;13689;48.590;7.752;2023-02-08T06:52:55;-0.60;73.30
25871;DHT22;13689;48.590;7.752;2023-02-08T06:55:21;-0.60;73.10
25871;DHT22;13689;48.590;7.752;2023-02-08T06:57:47;-0.50;73.20
25871;DHT22;13689;48.590;7.752;2023-02-08T07:00:13;-0.50;73.00
25871;DHT22;13689;48.590;7.752;2023-02-08T07:02:38;-0.50;73.00
25871;DHT22;13689;48.590;7.752;2023-02-08T07:05:04;-0.50;73.10
25871;DHT22;13689;48.590;7.752;2023-02-08T07:07:30;-0.50;72.90
25871;DHT22;13689;48.590;7.752;2023-02-08T07:09:55;-0.50;73.00
25871;DHT22;13689;48.590;7.752;2023-02-08T07:12:21;-0.50;73.10
25871;DHT22;13689;48.590;7.752;2023-02-08T07:14:47;-0.50;73.20
25871;DHT22;13689;48.590;7.752;2023-02-08T07:17:12;-0.50;73.20
25871;DHT22;13689;48.590;7.752;2023-02-08T07:19:39;-0.60;73.30
25871;DHT22;13689;48.590;7.752;2023-02-08T07:22:05;-0.60;73.50
25871;DHT22;13689;48.590;7.752;2023-02-08T07:24:36;-0.50;73.40
25871;DHT22;13689;48.590;7.752;2023-02-08T07:27:02;-0.50;73.40
25871;DHT22;13689;48.590;7.752;2023-02-08T07:29:30;-0.50;73.40
25871;DHT22;13689;48.590;7.752;2023-02-08T07:31:57;-0.50;73.30
25871;DHT22;13689;48.590;7.752;2023-02-08T07:34:23;-0.50;74.10
25871;DHT22;13689;48.590;7.752;2023-02-08T07:36:49;-0.40;73.40
25871;DHT22;13689;48.590;7.752;2023-02-08T07:39:15;-0.30;73.30
25871;DHT22;13689;48.590;7.752;2023-02-08T07:41:40;-0.30;73.10
25871;DHT22;13689;48.590;7.752;2023-02-08T07:44:06;-0.30;72.60
25871;DHT22;13689;48.590;7.752;2023-02-08T07:46:32;-0.30;72.80
25871;DHT22;13689;48.590;7.752;2023-02-08T07:48:57;-0.20;73.00
25871;DHT22;13689;48.590;7.752;2023-02-08T07:51:23;-0.10;73.00
25871;DHT22;13689;48.590;7.752;2023-02-08T07:53:49;-0.10;72.70
25871;DHT22;13689;48.590;7.752;2023-02-08T07:56:15;-0.10;72.50
25871;DHT22;13689;48.590;7.752;2023-02-08T07:58:40;-0.10;72.60
25871;DHT22;13689;48.590;7.752;2023-02-08T08:01:06;0.00;72.60
25871;DHT22;13689;48.590;7.752;2023-02-08T08:03:32;0.00;72.50
25871;DHT22;13689;48.590;7.752;2023-02-08T08:05:57;0.00;72.50
25871;DHT22;13689;48.590;7.752;2023-02-08T08:08:23;0.00;72.30
25871;DHT22;13689;48.590;7.752;2023-02-08T08:10:48;-0.10;72.00
25871;DHT22;13689;48.590;7.752;2023-02-08T08:13:14;-0.10;71.90
25871;DHT22;13689;48.590;7.752;2023-02-08T08:15:40;-0.10;72.10
25871;DHT22;13689;48.590;7.752;2023-02-08T08:18:06;0.00;72.00
25871;DHT22;13689;48.590;7.752;2023-02-08T08:20:32;-0.10;72.00
25871;DHT22;13689;48.590;7.752;2023-02-08T08:23:00;0.00;71.80
25871;DHT22;13689;48.590;7.752;2023-02-08T08:25:25;-0.10;71.80
25871;DHT22;13689;48.590;7.752;2023-02-08T08:27:51;0.00;71.90
25871;DHT22;13689;48.590;7.752;2023-02-08T08:30:17;0.00;71.80
25871;DHT22;13689;48.590;7.752;2023-02-08T08:32:43;0.00;71.90
25871;DHT22;13689;48.590;7.752;2023-02-08T08:35:09;0.10;71.70
25871;DHT22;13689;48.590;7.752;2023-02-08T08:37:35;0.10;71.20
25871;DHT22;13689;48.590;7.752;2023-02-08T08:40:01;0.10;71.00
25871;DHT22;13689;48.590;7.752;2023-02-08T08:42:27;0.10;71.10
25871;DHT22;13689;48.590;7.752;2023-02-08T08:44:53;0.10;71.00
25871;DHT22;13689;48.590;7.752;2023-02-08T08:47:19;0.20;70.90
25871;DHT22;13689;48.590;7.752;2023-02-08T08:49:45;0.20;70.60
25871;DHT22;13689;48.590;7.752;2023-02-08T08:52:11;0.20;70.70
25871;DHT22;13689;48.590;7.752;2023-02-08T08:54:37;0.30;70.30
25871;DHT22;13689;48.590;7.752;2023-02-08T08:57:03;0.30;70.00
25871;DHT22;13689;48.590;7.752;2023-02-08T08:59:29;0.40;70.10
25871;DHT22;13689;48.590;7.752;2023-02-08T09:01:55;0.50;69.90
25871;DHT22;13689;48.590;7.752;2023-02-08T09:04:20;0.70;69.90
25871;DHT22;13689;48.590;7.752;2023-02-08T09:06:49;0.80;69.50
25871;DHT22;13689;48.590;7.752;2023-02-08T09:09:15;1.20;69.10
25871;DHT22;13689;48.590;7.752;2023-02-08T09:11:40;2.50;68.90
25871;DHT22;13689;48.590;7.752;2023-02-08T09:14:06;3.40;66.00
25871;DHT22;13689;48.590;7.752;2023-02-08T09:16:32;4.70;63.70
25871;DHT22;13689;48.590;7.752;2023-02-08T09:19:05;6.00;62.60
25871;DHT22;13689;48.590;7.752;2023-02-08T09:21:31;7.30;60.90
25871;DHT22;13689;48.590;7.752;2023-02-08T09:23:59;8.40;58.70
25871;DHT22;13689;48.590;7.752;2023-02-08T09:26:25;9.30;56.90
25871;DHT22;13689;48.590;7.752;2023-02-08T09:28:51;9.90;56.30
25871;DHT22;13689;48.590;7.752;2023-02-08T09:31:28;10.30;52.90
25871;DHT22;13689;48.590;7.752;2023-02-08T09:33:56;11.00;52.80
25871;DHT22;13689;48.590;7.752;2023-02-08T09:36:24;11.50;52.70
25871;DHT22;13689;48.590;7.752;2023-02-08T09:38:54;11.90;51.70
25871;DHT22;13689;48.590;7.752;2023-02-08T09:44:31;12.00;50.10
25871;DHT22;13689;48.590;7.752;2023-02-08T09:48:13;11.90;49.40
25871;DHT22;13689;48.590;7.752;2023-02-08T09:50:35;11.90;48.30
25871;DHT22;13689;48.590;7.752;2023-02-08T09:53:14;12.20;48.40
25871;DHT22;13689;48.590;7.752;2023-02-08T09:55:47;11.70;46.30
25871;DHT22;13689;48.590;7.752;2023-02-08T09:58:34;11.50;46.90
25871;DHT22;13689;48.590;7.752;2023-02-08T10:01:00;11.80;47.40
25871;DHT22;13689;48.590;7.752;2023-02-08T10:03:37;11.80;45.40
25871;DHT22;13689;48.590;7.752;2023-02-08T10:06:04;11.80;45.70
25871;DHT22;13689;48.590;7.752;2023-02-08T10:08:31;11.90;44.50
25871;DHT22;13689;48.590;7.752;2023-02-08T10:11:23;11.70;43.80
25871;DHT22;13689;48.590;7.752;2023-02-08T10:20:12;12.40;42.80
25871;DHT22;13689;48.590;7.752;2023-02-08T10:25:45;13.00;40.30
25871;DHT22;13689;48.590;7.752;2023-02-08T10:33:33;13.20;38.30
25871;DHT22;13689;48.590;7.752;2023-02-08T10:36:06;13.80;38.50
25871;DHT22;13689;48.590;7.752;2023-02-08T10:38:37;14.70;37.80
25871;DHT22;13689;48.590;7.752;2023-02-08T10:41:05;15.00;36.90
25871;DHT22;13689;48.590;7.752;2023-02-08T10:49:20;14.60;34.80
25871;DHT22;13689;48.590;7.752;2023-02-08T10:51:48;10.70;36.80
25871;DHT22;13689;48.590;7.752;2023-02-08T10:54:14;8.60;39.80
25871;DHT22;13689;48.590;7.752;2023-02-08T10:56:54;7.30;41.80
25871;DHT22;13689;48.590;7.752;2023-02-08T10:59:43;6.40;43.40
25871;DHT22;13689;48.590;7.752;2023-02-08T11:02:24;5.80;44.50
25871;DHT22;13689;48.590;7.752;2023-02-08T11:07:24;5.00;46.00
25871;DHT22;13689;48.590;7.752;2023-02-08T11:09:51;4.80;46.70
25871;DHT22;13689;48.590;7.752;2023-02-08T11:12:21;4.60;47.30
25871;DHT22;13689;48.590;7.752;2023-02-08T11:14:51;4.40;48.10
25871;DHT22;13689;48.590;7.752;2023-02-08T11:17:27;4.30;49.00
25871;DHT22;13689;48.590;7.752;2023-02-08T11:19:53;4.20;49.40
25871;DHT22;13689;48.590;7.752;2023-02-08T11:22:22;4.20;49.40
25871;DHT22;13689;48.590;7.752;2023-02-08T11:24:55;4.20;49.50
25871;DHT22;13689;48.590;7.752;2023-02-08T11:27:30;4.20;49.50
25871;DHT22;13689;48.590;7.752;2023-02-08T11:32:45;4.10;49.70
25871;DHT22;13689;48.590;7.752;2023-02-08T11:37:36;4.10;50.30
25871;DHT22;13689;48.590;7.752;2023-02-08T11:40:03;4.10;50.30
25871;DHT22;13689;48.590;7.752;2023-02-08T11:42:35;4.20;50.20
25871;DHT22;13689;48.590;7.752;2023-02-08T11:45:01;4.20;50.10
25871;DHT22;13689;48.590;7.752;2023-02-08T11:47:30;4.20;50.20
25871;DHT22;13689;48.590;7.752;2023-02-08T11:49:59;4.20;50.20
25871;DHT22;13689;48.590;7.752;2023-02-08T11:52:37;4.20;50.40
25871;DHT22;13689;48.590;7.752;2023-02-08T12:00:24;4.30;50.70
25871;DHT22;13689;48.590;7.752;2023-02-08T12:02:57;4.30;50.80
25871;DHT22;13689;48.590;7.752;2023-02-08T12:22:15;4.60;50.40
25871;DHT22;13689;48.590;7.752;2023-02-08T12:28:25;4.50;50.40
25871;DHT22;13689;48.590;7.752;2023-02-08T12:34:00;4.60;50.60
25871;DHT22;13689;48.590;7.752;2023-02-08T12:36:59;4.60;50.70
25871;DHT22;13689;48.590;7.752;2023-02-08T12:40:07;4.70;50.90
25871;DHT22;13689;48.590;7.752;2023-02-08T12:54:32;4.80;50.70
25871;DHT22;13689;48.590;7.752;2023-02-08T12:57:00;4.80;50.80
25871;DHT22;13689;48.590;7.752;2023-02-08T12:59:53;4.80;50.50
25871;DHT22;13689;48.590;7.752;2023-02-08T13:02:22;4.90;50.50
25871;DHT22;13689;48.590;7.752;2023-02-08T13:04:52;4.90;50.20
25871;DHT22;13689;48.590;7.752;2023-02-08T13:07:29;5.00;50.20
25871;DHT22;13689;48.590;7.752;2023-02-08T13:10:27;5.00;50.20
25871;DHT22;13689;48.590;7.752;2023-02-08T13:12:57;5.00;50.20
25871;DHT22;13689;48.590;7.752;2023-02-08T13:15:35;5.00;50.00
25871;DHT22;13689;48.590;7.752;2023-02-08T13:18:10;5.00;49.60
25871;DHT22;13689;48.590;7.752;2023-02-08T13:21:00;5.10;49.50
25871;DHT22;13689;48.590;7.752;2023-02-08T13:23:39;5.10;49.50
25871;DHT22;13689;48.590;7.752;2023-02-08T13:26:18;5.10;49.40
25871;DHT22;13689;48.590;7.752;2023-02-08T13:28:50;5.10;49.50
25871;DHT22;13689;48.590;7.752;2023-02-08T13:31:38;5.10;49.70
25871;DHT22;13689;48.590;7.752;2023-02-08T13:34:13;5.20;49.50
25871;DHT22;13689;48.590;7.752;2023-02-08T13:36:48;5.20;49.30
25871;DHT22;13689;48.590;7.752;2023-02-08T13:39:31;5.20;49.40
25871;DHT22;13689;48.590;7.752;2023-02-08T13:41:57;5.20;49.10
25871;DHT22;13689;48.590;7.752;2023-02-08T13:44:31;5.20;49.00
25871;DHT22;13689;48.590;7.752;2023-02-08T13:46:58;5.20;49.00
25871;DHT22;13689;48.590;7.752;2023-02-08T13:57:59;5.30;48.40
25871;DHT22;13689;48.590;7.752;2023-02-08T14:08:39;5.40;47.80
25871;DHT22;13689;48.590;7.752;2023-02-08T14:14:35;5.40;47.80
25871;DHT22;13689;48.590;7.752;2023-02-08T14:16:37;5.40;47.90
25871;DHT22;13689;48.590;7.752;2023-02-08T14:21:44;5.40;48.20
25871;DHT22;13689;48.590;7.752;2023-02-08T14:24:27;5.40;48.80
25871;DHT22;13689;48.590;7.752;2023-02-08T14:27:10;5.40;48.30
25871;DHT22;13689;48.590;7.752;2023-02-08T14:29:41;5.40;48.50
25871;DHT22;13689;48.590;7.752;2023-02-08T14:32:07;5.50;48.60
25871;DHT22;13689;48.590;7.752;2023-02-08T14:34:36;5.40;48.60
25871;DHT22;13689;48.590;7.752;2023-02-08T14:39:49;5.50;48.80
25871;DHT22;13689;48.590;7.752;2023-02-08T14:42:55;5.40;48.60
25871;DHT22;13689;48.590;7.752;2023-02-08T14:45:34;5.50;48.60
25871;DHT22;13689;48.590;7.752;2023-02-08T14:56:24;5.50;48.90
25871;DHT22;13689;48.590;7.752;2023-02-08T14:59:10;5.40;49.00
25871;DHT22;13689;48.590;7.752;2023-02-08T15:04:09;5.40;48.70
25871;DHT22;13689;48.590;7.752;2023-02-08T15:09:02;5.40;48.70
25871;DHT22;13689;48.590;7.752;2023-02-08T15:11:31;5.50;48.80
25871;DHT22;13689;48.590;7.752;2023-02-08T15:13:59;5.40;48.70
25871;DHT22;13689;48.590;7.752;2023-02-08T15:16:44;5.40;48.70
25871;DHT22;13689;48.590;7.752;2023-02-08T15:19:37;5.40;48.80
25871;DHT22;13689;48.590;7.752;2023-02-08T15:22:27;5.40;48.80
25871;DHT22;13689;48.590;7.752;2023-02-08T15:25:00;5.40;48.80
25871;DHT22;13689;48.590;7.752;2023-02-08T15:27:35;5.30;48.90
25871;DHT22;13689;48.590;7.752;2023-02-08T15:30:00;5.40;49.10
25871;DHT22;13689;48.590;7.752;2023-02-08T15:32:28;5.30;49.10
25871;DHT22;13689;48.590;7.752;2023-02-08T15:34:58;5.30;49.30
25871;DHT22;13689;48.590;7.752;2023-02-08T15:37:26;5.30;49.30
25871;DHT22;13689;48.590;7.752;2023-02-08T15:39:56;5.40;49.30
25871;DHT22;13689;48.590;7.752;2023-02-08T15:42:25;5.30;49.40
25871;DHT22;13689;48.590;7.752;2023-02-08T15:44:53;5.30;49.50
25871;DHT22;13689;48.590;7.752;2023-02-08T15:47:29;5.30;49.60
25871;DHT22;13689;48.590;7.752;2023-02-08T15:49:56;5.30;49.80
25871;DHT22;13689;48.590;7.752;2023-02-08T15:52:29;5.30;49.90
25871;DHT22;13689;48.590;7.752;2023-02-08T15:54:56;5.30;50.00
25871;DHT22;13689;48.590;7.752;2023-02-08T15:59:47;5.20;50.10
25871;DHT22;13689;48.590;7.752;2023-02-08T16:02:26;5.10;50.10
25871;DHT22;13689;48.590;7.752;2023-02-08T16:04:59;5.10;50.20
25871;DHT22;13689;48.590;7.752;2023-02-08T16:07:35;5.10;50.30
25871;DHT22;13689;48.590;7.752;2023-02-08T16:10:03;5.10;50.40
25871;DHT22;13689;48.590;7.752;2023-02-08T16:12:30;5.10;50.50
25871;DHT22;13689;48.590;7.752;2023-02-08T16:14:55;5.10;50.60
25871;DHT22;13689;48.590;7.752;2023-02-08T16:17:42;5.00;50.60
25871;DHT22;13689;48.590;7.752;2023-02-08T16:20:27;5.00;50.70
25871;DHT22;13689;48.590;7.752;2023-02-08T16:23:26;5.00;50.80
25871;DHT22;13689;48.590;7.752;2023-02-08T16:25:53;4.90;50.90
25871;DHT22;13689;48.590;7.752;2023-02-08T16:28:30;4.90;51.20
25871;DHT22;13689;48.590;7.752;2023-02-08T16:31:01;4.90;51.30
25871;DHT22;13689;48.590;7.752;2023-02-08T16:33:29;4.80;51.50
25871;DHT22;13689;48.590;7.752;2023-02-08T16:35:55;4.80;51.60
25871;DHT22;13689;48.590;7.752;2023-02-08T16:38:31;4.80;51.80
25871;DHT22;13689;48.590;7.752;2023-02-08T16:41:00;4.70;52.40
25871;DHT22;13689;48.590;7.752;2023-02-08T16:43:40;4.70;52.00
25871;DHT22;13689;48.590;7.752;2023-02-08T16:48:44;4.60;52.10
25871;DHT22;13689;48.590;7.752;2023-02-08T16:51:12;4.60;52.30
25871;DHT22;13689;48.590;7.752;2023-02-08T16:53:40;4.60;52.40
25871;DHT22;13689;48.590;7.752;2023-02-08T16:56:07;4.50;52.60
25871;DHT22;13689;48.590;7.752;2023-02-08T16:58:32;4.50;52.80
25871;DHT22;13689;48.590;7.752;2023-02-08T17:00:58;4.50;52.90
25871;DHT22;13689;48.590;7.752;2023-02-08T17:03:24;4.40;53.70
25871;DHT22;13689;48.590;7.752;2023-02-08T17:05:50;4.40;53.30
25871;DHT22;13689;48.590;7.752;2023-02-08T17:08:19;4.40;53.50
25871;DHT22;13689;48.590;7.752;2023-02-08T17:10:46;4.40;53.60
25871;DHT22;13689;48.590;7.752;2023-02-08T17:13:13;4.30;53.70
25871;DHT22;13689;48.590;7.752;2023-02-08T17:15:39;4.30;53.80
25871;DHT22;13689;48.590;7.752;2023-02-08T17:18:05;4.30;53.90
25871;DHT22;13689;48.590;7.752;2023-02-08T17:20:33;4.20;54.00
25871;DHT22;13689;48.590;7.752;2023-02-08T17:23:01;4.30;54.10
25871;DHT22;13689;48.590;7.752;2023-02-08T17:25:28;4.20;54.20
25871;DHT22;13689;48.590;7.752;2023-02-08T17:28:00;4.20;54.40
25871;DHT22;13689;48.590;7.752;2023-02-08T17:30:35;4.20;54.60
25871;DHT22;13689;48.590;7.752;2023-02-08T17:33:02;4.10;54.70
25871;DHT22;13689;48.590;7.752;2023-02-08T17:35:29;4.10;54.80
25871;DHT22;13689;48.590;7.752;2023-02-08T17:37:56;4.10;54.90
25871;DHT22;13689;48.590;7.752;2023-02-08T17:40:28;4.10;55.10
25871;DHT22;13689;48.590;7.752;2023-02-08T17:42:59;4.10;55.20
25871;DHT22;13689;48.590;7.752;2023-02-08T17:45:27;4.00;55.30
25871;DHT22;13689;48.590;7.752;2023-02-08T17:47:53;4.00;55.50
25871;DHT22;13689;48.590;7.752;2023-02-08T17:50:20;3.90;55.60
25871;DHT22;13689;48.590;7.752;2023-02-08T17:52:46;3.90;55.70
25871;DHT22;13689;48.590;7.752;2023-02-08T17:55:13;3.90;55.90
25871;DHT22;13689;48.590;7.752;2023-02-08T17:57:40;3.90;56.10
25871;DHT22;13689;48.590;7.752;2023-02-08T18:00:12;3.80;56.40
25871;DHT22;13689;48.590;7.752;2023-02-08T18:02:42;3.80;56.60
25871;DHT22;13689;48.590;7.752;2023-02-08T18:05:07;3.80;56.70
25871;DHT22;13689;48.590;7.752;2023-02-08T18:07:33;3.70;56.90
25871;DHT22;13689;48.590;7.752;2023-02-08T18:09:59;3.70;57.40
25871;DHT22;13689;48.590;7.752;2023-02-08T18:12:24;3.70;57.60
25871;DHT22;13689;48.590;7.752;2023-02-08T18:14:50;3.70;57.70
25871;DHT22;13689;48.590;7.752;2023-02-08T18:17:15;3.70;57.70
25871;DHT22;13689;48.590;7.752;2023-02-08T18:19:41;3.70;57.60
25871;DHT22;13689;48.590;7.752;2023-02-08T18:22:07;3.70;57.60
25871;DHT22;13689;48.590;7.752;2023-02-08T18:24:33;3.70;57.70
25871;DHT22;13689;48.590;7.752;2023-02-08T18:26:58;3.70;57.60
25871;DHT22;13689;48.590;7.752;2023-02-08T18:29:24;3.70;57.70
25871;DHT22;13689;48.590;7.752;2023-02-08T18:31:50;3.70;57.70